sensor_id;sensor_type;location;lat;lon;timestamp;P1;durP1;ratioP1;P2;durP2;ratioP2
62832;SDS011;48891;49.220;6.920;2022-09-09T00:00:22;1.75;;;1.08;;
62832;SDS011;48891;49.220;6.920;2022-09-09T00:03:00;1.63;;;1.08;;
62832;SDS011;48891;49.220;6.920;2022-09-09T00:05:55;1.95;;;1.25;;
62832;SDS011;48891;49.220;6.920;2022-09-09T00:08:44;1.55;;;1.20;;
62832;SDS011;48891;49.220;6.920;2022-09-09T00:11:27;1.42;;;0.90;;
62832;SDS011;48891;49.220;6.920;2022-09-09T00:14:01;3.50;;;1.38;;
62832;SDS011;48891;49.220;6.920;2022-09-09T00:16:33;3.35;;;1.23;;
62832;SDS011;48891;49.220;6.920;2022-09-09T00:19:07;1.52;;;1.00;;
62832;SDS011;48891;49.220;6.920;2022-09-09T00:27:07;1.35;;;1.00;;
62832;SDS011;48891;49.220;6.920;2022-09-09T00:29:41;1.17;;;1.00;;
62832;SDS011;48891;49.220;6.920;2022-09-09T00:32:14;2.75;;;1.45;;
62832;SDS011;48891;49.220;6.920;2022-09-09T00:34:47;1.15;;;1.05;;
62832;SDS011;48891;49.220;6.920;2022-09-09T00:37:15;4.43;;;1.00;;
62832;SDS011;48891;49.220;6.920;2022-09-09T00:39:42;1.50;;;0.98;;
62832;SDS011;48891;49.220;6.920;2022-09-09T00:42:13;1.92;;;1.17;;
62832;SDS011;48891;49.220;6.920;2022-09-09T00:47:44;1.55;;;1.10;;
62832;SDS011;48891;49.220;6.920;2022-09-09T00:50:17;1.17;;;1.02;;
62832;SDS011;48891;49.220;6.920;2022-09-09T00:55:20;1.65;;;1.02;;
62832;SDS011;48891;49.220;6.920;2022-09-09T00:57:58;1.10;;;1.00;;
62832;SDS011;48891;49.220;6.920;2022-09-09T01:00:27;1.02;;;1.00;;
62832;SDS011;48891;49.220;6.920;2022-09-09T01:05:55;1.47;;;0.90;;
62832;SDS011;48891;49.220;6.920;2022-09-09T01:08:30;1.35;;;1.20;;
62832;SDS011;48891;49.220;6.920;2022-09-09T01:11:02;1.40;;;1.00;;
62832;SDS011;48891;49.220;6.920;2022-09-09T01:13:32;2.10;;;1.17;;
62832;SDS011;48891;49.220;6.920;2022-09-09T01:16:00;2.08;;;1.15;;
62832;SDS011;48891;49.220;6.920;2022-09-09T01:18:28;1.65;;;1.00;;
62832;SDS011;48891;49.220;6.920;2022-09-09T01:26:44;1.63;;;1.08;;
62832;SDS011;48891;49.220;6.920;2022-09-09T01:29:12;1.60;;;1.00;;
62832;SDS011;48891;49.220;6.920;2022-09-09T01:31:41;1.30;;;1.08;;
62832;SDS011;48891;49.220;6.920;2022-09-09T01:34:16;1.63;;;1.08;;
62832;SDS011;48891;49.220;6.920;2022-09-09T01:36:43;1.10;;;1.00;;
62832;SDS011;48891;49.220;6.920;2022-09-09T01:39:13;1.23;;;0.95;;
62832;SDS011;48891;49.220;6.920;2022-09-09T01:41:38;2.22;;;1.15;;
62832;SDS011;48891;49.220;6.920;2022-09-09T01:44:04;1.07;;;0.93;;
62832;SDS011;48891;49.220;6.920;2022-09-09T01:46:31;1.40;;;0.90;;
62832;SDS011;48891;49.220;6.920;2022-09-09T01:48:56;3.72;;;1.25;;
62832;SDS011;48891;49.220;6.920;2022-09-09T01:51:23;2.00;;;1.38;;
62832;SDS011;48891;49.220;6.920;2022-09-09T01:53:49;2.10;;;1.10;;
62832;SDS011;48891;49.220;6.920;2022-09-09T02:04:54;1.38;;;0.90;;
62832;SDS011;48891;49.220;6.920;2022-09-09T02:07:28;1.75;;;1.02;;
62832;SDS011;48891;49.220;6.920;2022-09-09T02:10:09;2.05;;;1.10;;
62832;SDS011;48891;49.220;6.920;2022-09-09T02:12:35;1.38;;;0.80;;
62832;SDS011;48891;49.220;6.920;2022-09-09T02:17:34;1.58;;;0.80;;
62832;SDS011;48891;49.220;6.920;2022-09-09T02:20:10;1.58;;;0.77;;
62832;SDS011;48891;49.220;6.920;2022-09-09T02:22:39;2.00;;;1.10;;
62832;SDS011;48891;49.220;6.920;2022-09-09T02:25:08;2.00;;;1.40;;
62832;SDS011;48891;49.220;6.920;2022-09-09T02:27:36;1.98;;;1.17;;
62832;SDS011;48891;49.220;6.920;2022-09-09T02:30:02;1.92;;;0.98;;
62832;SDS011;48891;49.220;6.920;2022-09-09T02:32:29;1.67;;;1.23;;
62832;SDS011;48891;49.220;6.920;2022-09-09T02:35:18;1.33;;;0.90;;
62832;SDS011;48891;49.220;6.920;2022-09-09T02:37:47;2.72;;;1.00;;
62832;SDS011;48891;49.220;6.920;2022-09-09T02:40:15;2.13;;;0.82;;
62832;SDS011;48891;49.220;6.920;2022-09-09T02:42:40;1.92;;;1.20;;
62832;SDS011;48891;49.220;6.920;2022-09-09T02:45:10;1.63;;;0.90;;
62832;SDS011;48891;49.220;6.920;2022-09-09T02:47:39;1.25;;;1.10;;
62832;SDS011;48891;49.220;6.920;2022-09-09T02:52:45;0.85;;;0.85;;
62832;SDS011;48891;49.220;6.920;2022-09-09T02:58:03;1.33;;;0.90;;
62832;SDS011;48891;49.220;6.920;2022-09-09T03:00:31;1.38;;;0.70;;
62832;SDS011;48891;49.220;6.920;2022-09-09T03:02:56;1.20;;;0.82;;
62832;SDS011;48891;49.220;6.920;2022-09-09T03:05:22;1.83;;;0.90;;
62832;SDS011;48891;49.220;6.920;2022-09-09T03:07:47;1.27;;;1.05;;
62832;SDS011;48891;49.220;6.920;2022-09-09T03:10:12;2.90;;;1.20;;
62832;SDS011;48891;49.220;6.920;2022-09-09T03:12:37;1.17;;;0.82;;
62832;SDS011;48891;49.220;6.920;2022-09-09T03:15:03;0.70;;;0.70;;
62832;SDS011;48891;49.220;6.920;2022-09-09T03:17:28;0.70;;;0.68;;
62832;SDS011;48891;49.220;6.920;2022-09-09T03:19:53;1.60;;;0.93;;
62832;SDS011;48891;49.220;6.920;2022-09-09T03:22:19;2.30;;;1.10;;
62832;SDS011;48891;49.220;6.920;2022-09-09T03:24:44;1.90;;;0.97;;
62832;SDS011;48891;49.220;6.920;2022-09-09T03:27:09;1.83;;;1.20;;
62832;SDS011;48891;49.220;6.920;2022-09-09T03:29:34;1.30;;;0.87;;
62832;SDS011;48891;49.220;6.920;2022-09-09T03:31:59;2.00;;;1.00;;
62832;SDS011;48891;49.220;6.920;2022-09-09T03:34:25;0.80;;;0.80;;
62832;SDS011;48891;49.220;6.920;2022-09-09T03:36:50;0.90;;;0.90;;
62832;SDS011;48891;49.220;6.920;2022-09-09T03:39:15;1.07;;;0.67;;
62832;SDS011;48891;49.220;6.920;2022-09-09T03:41:40;1.30;;;0.90;;
62832;SDS011;48891;49.220;6.920;2022-09-09T03:44:05;1.50;;;1.10;;
62832;SDS011;48891;49.220;6.920;2022-09-09T03:46:31;1.30;;;1.00;;
62832;SDS011;48891;49.220;6.920;2022-09-09T03:48:56;1.10;;;1.00;;
62832;SDS011;48891;49.220;6.920;2022-09-09T03:51:21;2.03;;;1.10;;
62832;SDS011;48891;49.220;6.920;2022-09-09T03:53:46;0.90;;;0.82;;
62832;SDS011;48891;49.220;6.920;2022-09-09T03:56:11;1.67;;;0.70;;
62832;SDS011;48891;49.220;6.920;2022-09-09T03:58:37;1.45;;;0.90;;
62832;SDS011;48891;49.220;6.920;2022-09-09T04:03:29;2.67;;;1.08;;
62832;SDS011;48891;49.220;6.920;2022-09-09T04:05:55;1.48;;;0.93;;
62832;SDS011;48891;49.220;6.920;2022-09-09T04:08:23;1.58;;;1.20;;
62832;SDS011;48891;49.220;6.920;2022-09-09T04:10:49;1.00;;;0.90;;
62832;SDS011;48891;49.220;6.920;2022-09-09T04:13:15;1.20;;;0.85;;
62832;SDS011;48891;49.220;6.920;2022-09-09T04:15:42;1.00;;;0.88;;
62832;SDS011;48891;49.220;6.920;2022-09-09T04:18:07;1.27;;;0.93;;
62832;SDS011;48891;49.220;6.920;2022-09-09T04:20:33;2.63;;;1.05;;
62832;SDS011;48891;49.220;6.920;2022-09-09T04:22:58;0.70;;;0.70;;
62832;SDS011;48891;49.220;6.920;2022-09-09T04:25:23;1.07;;;0.93;;
62832;SDS011;48891;49.220;6.920;2022-09-09T04:27:53;1.73;;;0.90;;
62832;SDS011;48891;49.220;6.920;2022-09-09T04:30:19;1.70;;;1.05;;
62832;SDS011;48891;49.220;6.920;2022-09-09T04:32:44;2.13;;;1.05;;
62832;SDS011;48891;49.220;6.920;2022-09-09T04:35:09;1.60;;;1.00;;
62832;SDS011;48891;49.220;6.920;2022-09-09T04:37:35;1.77;;;1.00;;
62832;SDS011;48891;49.220;6.920;2022-09-09T04:40:00;1.53;;;1.10;;
62832;SDS011;48891;49.220;6.920;2022-09-09T04:42:25;0.88;;;0.73;;
62832;SDS011;48891;49.220;6.920;2022-09-09T04:44:50;0.97;;;0.80;;
62832;SDS011;48891;49.220;6.920;2022-09-09T04:47:15;1.70;;;0.97;;
62832;SDS011;48891;49.220;6.920;2022-09-09T04:49:41;1.40;;;0.90;;
62832;SDS011;48891;49.220;6.920;2022-09-09T04:52:06;1.53;;;0.90;;
62832;SDS011;48891;49.220;6.920;2022-09-09T04:54:31;1.45;;;1.05;;
62832;SDS011;48891;49.220;6.920;2022-09-09T04:56:56;1.80;;;1.10;;
62832;SDS011;48891;49.220;6.920;2022-09-09T04:59:22;1.67;;;0.97;;
62832;SDS011;48891;49.220;6.920;2022-09-09T05:01:47;2.42;;;1.10;;
62832;SDS011;48891;49.220;6.920;2022-09-09T05:04:13;1.95;;;1.00;;
62832;SDS011;48891;49.220;6.920;2022-09-09T05:06:38;1.55;;;0.95;;
62832;SDS011;48891;49.220;6.920;2022-09-09T05:09:04;3.53;;;1.10;;
62832;SDS011;48891;49.220;6.920;2022-09-09T05:11:30;0.97;;;0.77;;
62832;SDS011;48891;49.220;6.920;2022-09-09T05:13:56;2.20;;;1.10;;
62832;SDS011;48891;49.220;6.920;2022-09-09T05:16:21;3.40;;;1.20;;
62832;SDS011;48891;49.220;6.920;2022-09-09T05:18:47;1.70;;;1.00;;
62832;SDS011;48891;49.220;6.920;2022-09-09T05:21:13;0.80;;;0.70;;
62832;SDS011;48891;49.220;6.920;2022-09-09T05:23:39;1.10;;;0.90;;
62832;SDS011;48891;49.220;6.920;2022-09-09T05:26:05;1.85;;;0.80;;
62832;SDS011;48891;49.220;6.920;2022-09-09T05:28:33;1.95;;;0.95;;
62832;SDS011;48891;49.220;6.920;2022-09-09T05:31:00;1.35;;;0.98;;
62832;SDS011;48891;49.220;6.920;2022-09-09T05:33:26;1.97;;;1.13;;
62832;SDS011;48891;49.220;6.920;2022-09-09T05:35:56;1.80;;;1.05;;
62832;SDS011;48891;49.220;6.920;2022-09-09T05:38:26;0.90;;;0.70;;
62832;SDS011;48891;49.220;6.920;2022-09-09T05:40:51;2.13;;;0.90;;
62832;SDS011;48891;49.220;6.920;2022-09-09T05:43:18;2.03;;;1.10;;
62832;SDS011;48891;49.220;6.920;2022-09-09T05:45:43;5.53;;;1.38;;
62832;SDS011;48891;49.220;6.920;2022-09-09T05:48:09;7.10;;;1.90;;
62832;SDS011;48891;49.220;6.920;2022-09-09T05:50:34;5.53;;;1.42;;
62832;SDS011;48891;49.220;6.920;2022-09-09T05:52:59;6.53;;;1.87;;
62832;SDS011;48891;49.220;6.920;2022-09-09T05:55:24;5.40;;;1.70;;
62832;SDS011;48891;49.220;6.920;2022-09-09T05:57:50;3.93;;;1.50;;
62832;SDS011;48891;49.220;6.920;2022-09-09T06:00:15;2.73;;;1.17;;
62832;SDS011;48891;49.220;6.920;2022-09-09T06:02:40;6.20;;;1.98;;
62832;SDS011;48891;49.220;6.920;2022-09-09T06:05:05;4.70;;;1.67;;
62832;SDS011;48891;49.220;6.920;2022-09-09T06:07:31;4.10;;;1.58;;
62832;SDS011;48891;49.220;6.920;2022-09-09T06:09:56;5.13;;;1.77;;
62832;SDS011;48891;49.220;6.920;2022-09-09T06:12:21;6.33;;;1.70;;
62832;SDS011;48891;49.220;6.920;2022-09-09T06:14:46;4.60;;;1.80;;
62832;SDS011;48891;49.220;6.920;2022-09-09T06:17:12;5.00;;;1.60;;
62832;SDS011;48891;49.220;6.920;2022-09-09T06:19:37;5.10;;;1.67;;
62832;SDS011;48891;49.220;6.920;2022-09-09T06:22:02;4.68;;;1.70;;
62832;SDS011;48891;49.220;6.920;2022-09-09T06:24:27;4.18;;;1.73;;
62832;SDS011;48891;49.220;6.920;2022-09-09T06:26:53;4.90;;;1.90;;
62832;SDS011;48891;49.220;6.920;2022-09-09T06:29:18;4.93;;;1.77;;
62832;SDS011;48891;49.220;6.920;2022-09-09T06:31:43;5.47;;;1.70;;
62832;SDS011;48891;49.220;6.920;2022-09-09T06:34:08;3.87;;;1.40;;
62832;SDS011;48891;49.220;6.920;2022-09-09T06:36:34;4.45;;;1.50;;
62832;SDS011;48891;49.220;6.920;2022-09-09T06:39:01;3.88;;;1.52;;
62832;SDS011;48891;49.220;6.920;2022-09-09T06:41:28;3.05;;;1.55;;
62832;SDS011;48891;49.220;6.920;2022-09-09T06:46:21;4.75;;;1.83;;
62832;SDS011;48891;49.220;6.920;2022-09-09T06:48:48;8.18;;;2.13;;
62832;SDS011;48891;49.220;6.920;2022-09-09T06:53:39;3.53;;;1.63;;
62832;SDS011;48891;49.220;6.920;2022-09-09T06:58:34;4.68;;;1.40;;
62832;SDS011;48891;49.220;6.920;2022-09-09T07:01:06;6.75;;;1.73;;
62832;SDS011;48891;49.220;6.920;2022-09-09T07:03:32;4.63;;;1.60;;
62832;SDS011;48891;49.220;6.920;2022-09-09T07:05:58;4.07;;;1.58;;
62832;SDS011;48891;49.220;6.920;2022-09-09T07:08:23;5.93;;;1.60;;
62832;SDS011;48891;49.220;6.920;2022-09-09T07:10:48;3.90;;;1.60;;
62832;SDS011;48891;49.220;6.920;2022-09-09T07:13:14;5.40;;;1.67;;
62832;SDS011;48891;49.220;6.920;2022-09-09T07:15:39;2.17;;;1.37;;
62832;SDS011;48891;49.220;6.920;2022-09-09T07:18:04;4.03;;;1.90;;
62832;SDS011;48891;49.220;6.920;2022-09-09T07:20:29;4.97;;;1.60;;
62832;SDS011;48891;49.220;6.920;2022-09-09T07:22:55;3.77;;;1.60;;
62832;SDS011;48891;49.220;6.920;2022-09-09T07:25:20;3.70;;;1.63;;
62832;SDS011;48891;49.220;6.920;2022-09-09T07:27:45;5.57;;;1.70;;
62832;SDS011;48891;49.220;6.920;2022-09-09T07:30:10;5.37;;;2.07;;
62832;SDS011;48891;49.220;6.920;2022-09-09T07:32:36;4.50;;;1.60;;
62832;SDS011;48891;49.220;6.920;2022-09-09T07:35:01;4.63;;;1.50;;
62832;SDS011;48891;49.220;6.920;2022-09-09T07:37:26;3.97;;;1.85;;
62832;SDS011;48891;49.220;6.920;2022-09-09T07:39:52;5.33;;;1.60;;
62832;SDS011;48891;49.220;6.920;2022-09-09T07:42:17;4.43;;;1.63;;
62832;SDS011;48891;49.220;6.920;2022-09-09T07:44:42;4.22;;;1.65;;
62832;SDS011;48891;49.220;6.920;2022-09-09T07:47:07;4.47;;;1.23;;
62832;SDS011;48891;49.220;6.920;2022-09-09T07:49:33;7.28;;;1.83;;
62832;SDS011;48891;49.220;6.920;2022-09-09T07:51:58;4.97;;;1.50;;
62832;SDS011;48891;49.220;6.920;2022-09-09T07:54:23;3.97;;;1.60;;
62832;SDS011;48891;49.220;6.920;2022-09-09T07:56:49;2.60;;;1.20;;
62832;SDS011;48891;49.220;6.920;2022-09-09T07:59:15;5.00;;;1.60;;
62832;SDS011;48891;49.220;6.920;2022-09-09T08:01:42;3.63;;;1.58;;
62832;SDS011;48891;49.220;6.920;2022-09-09T08:04:10;2.90;;;1.52;;
62832;SDS011;48891;49.220;6.920;2022-09-09T08:06:38;4.32;;;1.50;;
62832;SDS011;48891;49.220;6.920;2022-09-09T08:09:05;3.65;;;1.48;;
62832;SDS011;48891;49.220;6.920;2022-09-09T08:11:31;2.53;;;1.45;;
62832;SDS011;48891;49.220;6.920;2022-09-09T08:13:57;3.15;;;1.30;;
62832;SDS011;48891;49.220;6.920;2022-09-09T08:16:23;3.05;;;1.48;;
62832;SDS011;48891;49.220;6.920;2022-09-09T08:18:51;4.10;;;1.63;;
62832;SDS011;48891;49.220;6.920;2022-09-09T08:21:18;3.13;;;1.20;;
62832;SDS011;48891;49.220;6.920;2022-09-09T08:23:46;3.53;;;1.40;;
62832;SDS011;48891;49.220;6.920;2022-09-09T08:26:19;2.92;;;1.38;;
62832;SDS011;48891;49.220;6.920;2022-09-09T08:28:49;4.40;;;1.40;;
62832;SDS011;48891;49.220;6.920;2022-09-09T08:31:16;3.13;;;1.20;;
62832;SDS011;48891;49.220;6.920;2022-09-09T08:33:47;2.38;;;1.13;;
62832;SDS011;48891;49.220;6.920;2022-09-09T08:36:14;3.20;;;1.40;;
62832;SDS011;48891;49.220;6.920;2022-09-09T08:38:41;2.38;;;1.20;;
62832;SDS011;48891;49.220;6.920;2022-09-09T08:41:12;1.80;;;1.05;;
62832;SDS011;48891;49.220;6.920;2022-09-09T08:52:25;3.85;;;1.27;;
62832;SDS011;48891;49.220;6.920;2022-09-09T08:54:52;3.65;;;1.45;;
62832;SDS011;48891;49.220;6.920;2022-09-09T08:59:50;3.45;;;1.30;;
62832;SDS011;48891;49.220;6.920;2022-09-09T09:02:27;6.20;;;1.73;;
62832;SDS011;48891;49.220;6.920;2022-09-09T09:08:17;3.58;;;1.40;;
62832;SDS011;48891;49.220;6.920;2022-09-09T09:10:46;3.25;;;1.33;;
62832;SDS011;48891;49.220;6.920;2022-09-09T09:13:14;3.35;;;1.42;;
62832;SDS011;48891;49.220;6.920;2022-09-09T09:15:41;3.72;;;1.60;;
62832;SDS011;48891;49.220;6.920;2022-09-09T09:18:10;3.65;;;1.50;;
62832;SDS011;48891;49.220;6.920;2022-09-09T09:23:37;2.58;;;1.30;;
62832;SDS011;48891;49.220;6.920;2022-09-09T09:26:09;2.42;;;1.50;;
62832;SDS011;48891;49.220;6.920;2022-09-09T09:28:35;2.53;;;1.58;;
62832;SDS011;48891;49.220;6.920;2022-09-09T09:31:03;3.83;;;1.58;;
62832;SDS011;48891;49.220;6.920;2022-09-09T09:34:03;4.80;;;1.50;;
62832;SDS011;48891;49.220;6.920;2022-09-09T09:36:23;2.53;;;1.25;;
62832;SDS011;48891;49.220;6.920;2022-09-09T09:39:00;4.18;;;1.35;;
62832;SDS011;48891;49.220;6.920;2022-09-09T09:43:55;4.97;;;1.73;;
62832;SDS011;48891;49.220;6.920;2022-09-09T09:46:21;3.53;;;1.40;;
62832;SDS011;48891;49.220;6.920;2022-09-09T09:49:00;4.00;;;1.50;;
62832;SDS011;48891;49.220;6.920;2022-09-09T09:51:27;2.88;;;1.38;;
62832;SDS011;48891;49.220;6.920;2022-09-09T09:54:01;6.20;;;1.58;;
62832;SDS011;48891;49.220;6.920;2022-09-09T09:56:33;3.28;;;1.27;;
62832;SDS011;48891;49.220;6.920;2022-09-09T09:58:58;2.33;;;1.25;;
62832;SDS011;48891;49.220;6.920;2022-09-09T10:01:28;2.97;;;1.27;;
62832;SDS011;48891;49.220;6.920;2022-09-09T10:03:58;2.30;;;1.40;;
62832;SDS011;48891;49.220;6.920;2022-09-09T10:06:34;3.92;;;1.40;;
62832;SDS011;48891;49.220;6.920;2022-09-09T10:09:01;2.55;;;1.35;;
62832;SDS011;48891;49.220;6.920;2022-09-09T10:11:40;3.33;;;1.20;;
62832;SDS011;48891;49.220;6.920;2022-09-09T10:14:19;2.35;;;1.40;;
62832;SDS011;48891;49.220;6.920;2022-09-09T10:27:38;3.35;;;1.30;;
62832;SDS011;48891;49.220;6.920;2022-09-09T10:30:16;3.25;;;1.70;;
62832;SDS011;48891;49.220;6.920;2022-09-09T10:35:35;3.30;;;1.35;;
62832;SDS011;48891;49.220;6.920;2022-09-09T10:38:30;2.73;;;1.30;;
62832;SDS011;48891;49.220;6.920;2022-09-09T10:41:15;4.38;;;1.58;;
62832;SDS011;48891;49.220;6.920;2022-09-09T10:44:10;2.90;;;1.25;;
62832;SDS011;48891;49.220;6.920;2022-09-09T10:55:28;2.63;;;1.00;;
62832;SDS011;48891;49.220;6.920;2022-09-09T10:58:03;4.00;;;1.65;;
62832;SDS011;48891;49.220;6.920;2022-09-09T11:03:05;4.18;;;1.52;;
62832;SDS011;48891;49.220;6.920;2022-09-09T11:05:35;3.17;;;1.40;;
62832;SDS011;48891;49.220;6.920;2022-09-09T11:08:09;1.67;;;1.25;;
62832;SDS011;48891;49.220;6.920;2022-09-09T11:10:44;1.75;;;1.40;;
62832;SDS011;48891;49.220;6.920;2022-09-09T11:13:49;2.75;;;1.30;;
62832;SDS011;48891;49.220;6.920;2022-09-09T11:16:26;3.72;;;1.40;;
62832;SDS011;48891;49.220;6.920;2022-09-09T11:19:02;3.35;;;1.50;;
62832;SDS011;48891;49.220;6.920;2022-09-09T11:21:37;3.20;;;1.58;;
62832;SDS011;48891;49.220;6.920;2022-09-09T11:24:14;4.32;;;1.50;;
62832;SDS011;48891;49.220;6.920;2022-09-09T11:26:47;2.45;;;1.40;;
62832;SDS011;48891;49.220;6.920;2022-09-09T11:37:53;2.80;;;1.30;;
62832;SDS011;48891;49.220;6.920;2022-09-09T11:40:37;3.05;;;1.20;;
62832;SDS011;48891;49.220;6.920;2022-09-09T11:43:09;2.67;;;1.30;;
62832;SDS011;48891;49.220;6.920;2022-09-09T11:45:38;3.00;;;1.45;;
62832;SDS011;48891;49.220;6.920;2022-09-09T11:48:05;3.65;;;1.40;;
62832;SDS011;48891;49.220;6.920;2022-09-09T11:50:31;1.70;;;1.10;;
62832;SDS011;48891;49.220;6.920;2022-09-09T11:55:41;2.60;;;1.30;;
62832;SDS011;48891;49.220;6.920;2022-09-09T11:58:15;4.60;;;1.40;;
62832;SDS011;48891;49.220;6.920;2022-09-09T12:00:43;3.67;;;1.67;;
62832;SDS011;48891;49.220;6.920;2022-09-09T12:03:31;2.72;;;1.35;;
62832;SDS011;48891;49.220;6.920;2022-09-09T12:08:56;2.00;;;1.13;;
62832;SDS011;48891;49.220;6.920;2022-09-09T12:11:31;2.10;;;1.30;;
62832;SDS011;48891;49.220;6.920;2022-09-09T12:13:57;3.17;;;1.45;;
62832;SDS011;48891;49.220;6.920;2022-09-09T12:16:28;4.18;;;1.23;;
62832;SDS011;48891;49.220;6.920;2022-09-09T12:24:19;4.20;;;1.60;;
62832;SDS011;48891;49.220;6.920;2022-09-09T12:29:54;3.58;;;1.55;;
62832;SDS011;48891;49.220;6.920;2022-09-09T12:32:26;1.42;;;1.10;;
62832;SDS011;48891;49.220;6.920;2022-09-09T12:34:53;2.88;;;1.40;;
62832;SDS011;48891;49.220;6.920;2022-09-09T12:37:34;2.92;;;1.52;;
62832;SDS011;48891;49.220;6.920;2022-09-09T12:40:15;2.95;;;1.33;;
62832;SDS011;48891;49.220;6.920;2022-09-09T12:42:45;1.58;;;1.05;;
62832;SDS011;48891;49.220;6.920;2022-09-09T12:45:17;3.13;;;1.20;;
62832;SDS011;48891;49.220;6.920;2022-09-09T12:47:49;3.42;;;1.40;;
62832;SDS011;48891;49.220;6.920;2022-09-09T12:50:22;3.20;;;1.15;;
62832;SDS011;48891;49.220;6.920;2022-09-09T12:52:49;1.70;;;1.27;;
62832;SDS011;48891;49.220;6.920;2022-09-09T12:57:44;1.48;;;1.23;;
62832;SDS011;48891;49.220;6.920;2022-09-09T13:00:16;2.35;;;1.50;;
62832;SDS011;48891;49.220;6.920;2022-09-09T13:02:51;2.65;;;1.20;;
62832;SDS011;48891;49.220;6.920;2022-09-09T13:05:18;3.53;;;1.20;;
62832;SDS011;48891;49.220;6.920;2022-09-09T13:07:46;2.72;;;1.08;;
62832;SDS011;48891;49.220;6.920;2022-09-09T13:10:12;2.17;;;1.15;;
62832;SDS011;48891;49.220;6.920;2022-09-09T13:12:39;2.60;;;1.05;;
62832;SDS011;48891;49.220;6.920;2022-09-09T13:15:10;2.67;;;1.30;;
62832;SDS011;48891;49.220;6.920;2022-09-09T13:17:48;2.55;;;1.20;;
62832;SDS011;48891;49.220;6.920;2022-09-09T13:20:16;3.05;;;1.30;;
62832;SDS011;48891;49.220;6.920;2022-09-09T13:22:43;1.92;;;1.15;;
62832;SDS011;48891;49.220;6.920;2022-09-09T13:27:37;1.77;;;1.20;;
62832;SDS011;48891;49.220;6.920;2022-09-09T13:30:20;2.50;;;1.02;;
62832;SDS011;48891;49.220;6.920;2022-09-09T13:32:47;3.38;;;1.48;;
62832;SDS011;48891;49.220;6.920;2022-09-09T13:35:24;2.42;;;0.98;;
62832;SDS011;48891;49.220;6.920;2022-09-09T13:37:49;3.80;;;1.40;;
62832;SDS011;48891;49.220;6.920;2022-09-09T13:40:18;2.67;;;1.40;;
62832;SDS011;48891;49.220;6.920;2022-09-09T13:42:46;2.10;;;1.27;;
62832;SDS011;48891;49.220;6.920;2022-09-09T13:45:15;2.40;;;1.20;;
62832;SDS011;48891;49.220;6.920;2022-09-09T13:47:43;2.33;;;1.40;;
62832;SDS011;48891;49.220;6.920;2022-09-09T13:50:27;2.33;;;1.10;;
62832;SDS011;48891;49.220;6.920;2022-09-09T13:52:54;0.82;;;0.82;;
62832;SDS011;48891;49.220;6.920;2022-09-09T13:55:22;2.70;;;1.20;;
62832;SDS011;48891;49.220;6.920;2022-09-09T14:02:42;2.93;;;1.30;;
62832;SDS011;48891;49.220;6.920;2022-09-09T14:05:07;2.63;;;1.40;;
62832;SDS011;48891;49.220;6.920;2022-09-09T14:07:32;1.30;;;0.90;;
62832;SDS011;48891;49.220;6.920;2022-09-09T14:09:57;1.95;;;1.02;;
62832;SDS011;48891;49.220;6.920;2022-09-09T14:12:23;2.43;;;1.13;;
62832;SDS011;48891;49.220;6.920;2022-09-09T14:14:48;2.42;;;1.00;;
62832;SDS011;48891;49.220;6.920;2022-09-09T14:17:14;2.50;;;1.20;;
62832;SDS011;48891;49.220;6.920;2022-09-09T14:19:39;2.53;;;1.20;;
62832;SDS011;48891;49.220;6.920;2022-09-09T14:22:04;1.23;;;1.00;;
62832;SDS011;48891;49.220;6.920;2022-09-09T14:24:29;1.60;;;1.02;;
62832;SDS011;48891;49.220;6.920;2022-09-09T14:26:55;2.65;;;0.90;;
62832;SDS011;48891;49.220;6.920;2022-09-09T14:29:20;2.08;;;1.30;;
62832;SDS011;48891;49.220;6.920;2022-09-09T14:31:46;1.40;;;1.13;;
62832;SDS011;48891;49.220;6.920;2022-09-09T14:34:11;1.97;;;1.10;;
62832;SDS011;48891;49.220;6.920;2022-09-09T14:36:37;2.38;;;1.23;;
62832;SDS011;48891;49.220;6.920;2022-09-09T14:39:03;1.75;;;0.98;;
62832;SDS011;48891;49.220;6.920;2022-09-09T14:41:29;2.95;;;1.25;;
62832;SDS011;48891;49.220;6.920;2022-09-09T14:43:54;1.30;;;1.10;;
62832;SDS011;48891;49.220;6.920;2022-09-09T14:46:19;1.17;;;0.90;;
62832;SDS011;48891;49.220;6.920;2022-09-09T14:48:45;3.58;;;1.38;;
62832;SDS011;48891;49.220;6.920;2022-09-09T14:51:12;2.00;;;1.00;;
62832;SDS011;48891;49.220;6.920;2022-09-09T14:53:44;1.90;;;1.10;;
62832;SDS011;48891;49.220;6.920;2022-09-09T14:56:11;1.38;;;0.90;;
62832;SDS011;48891;49.220;6.920;2022-09-09T14:58:39;2.03;;;1.38;;
62832;SDS011;48891;49.220;6.920;2022-09-09T15:01:08;1.50;;;1.10;;
62832;SDS011;48891;49.220;6.920;2022-09-09T15:03:38;1.33;;;0.88;;
62832;SDS011;48891;49.220;6.920;2022-09-09T15:06:08;1.88;;;1.05;;
62832;SDS011;48891;49.220;6.920;2022-09-09T15:08:36;1.38;;;1.13;;
62832;SDS011;48891;49.220;6.920;2022-09-09T15:11:04;1.27;;;0.90;;
62832;SDS011;48891;49.220;6.920;2022-09-09T15:13:30;1.80;;;1.02;;
62832;SDS011;48891;49.220;6.920;2022-09-09T15:16:02;1.60;;;1.13;;
62832;SDS011;48891;49.220;6.920;2022-09-09T15:18:29;1.40;;;0.93;;
62832;SDS011;48891;49.220;6.920;2022-09-09T15:20:54;1.37;;;1.00;;
62832;SDS011;48891;49.220;6.920;2022-09-09T15:23:19;2.08;;;0.88;;
62832;SDS011;48891;49.220;6.920;2022-09-09T15:25:54;1.73;;;0.93;;
62832;SDS011;48891;49.220;6.920;2022-09-09T15:28:20;0.98;;;0.90;;
62832;SDS011;48891;49.220;6.920;2022-09-09T15:30:49;1.90;;;0.95;;
62832;SDS011;48891;49.220;6.920;2022-09-09T15:33:15;1.15;;;0.70;;
62832;SDS011;48891;49.220;6.920;2022-09-09T15:35:41;1.10;;;1.00;;
62832;SDS011;48891;49.220;6.920;2022-09-09T15:38:06;0.82;;;0.82;;
62832;SDS011;48891;49.220;6.920;2022-09-09T15:40:31;2.20;;;1.02;;
62832;SDS011;48891;49.220;6.920;2022-09-09T15:42:57;1.00;;;0.90;;
62832;SDS011;48891;49.220;6.920;2022-09-09T15:45:22;1.23;;;1.00;;
62832;SDS011;48891;49.220;6.920;2022-09-09T15:47:47;1.10;;;0.80;;
62832;SDS011;48891;49.220;6.920;2022-09-09T15:50:12;1.93;;;1.00;;
62832;SDS011;48891;49.220;6.920;2022-09-09T15:52:37;2.42;;;1.17;;
62832;SDS011;48891;49.220;6.920;2022-09-09T15:55:03;1.80;;;1.10;;
62832;SDS011;48891;49.220;6.920;2022-09-09T15:57:28;2.80;;;1.10;;
62832;SDS011;48891;49.220;6.920;2022-09-09T15:59:53;2.00;;;0.90;;
62832;SDS011;48891;49.220;6.920;2022-09-09T16:02:19;2.07;;;1.10;;
62832;SDS011;48891;49.220;6.920;2022-09-09T16:04:44;1.83;;;1.10;;
62832;SDS011;48891;49.220;6.920;2022-09-09T16:07:09;2.07;;;1.13;;
62832;SDS011;48891;49.220;6.920;2022-09-09T16:09:35;3.45;;;1.15;;
62832;SDS011;48891;49.220;6.920;2022-09-09T16:12:01;1.13;;;1.00;;
62832;SDS011;48891;49.220;6.920;2022-09-09T16:14:28;2.10;;;0.95;;
62832;SDS011;48891;49.220;6.920;2022-09-09T16:16:54;1.83;;;1.00;;
62832;SDS011;48891;49.220;6.920;2022-09-09T16:19:19;1.13;;;1.00;;
62832;SDS011;48891;49.220;6.920;2022-09-09T16:21:45;1.23;;;0.80;;
62832;SDS011;48891;49.220;6.920;2022-09-09T16:24:13;1.63;;;0.93;;
62832;SDS011;48891;49.220;6.920;2022-09-09T16:26:41;2.80;;;1.17;;
62832;SDS011;48891;49.220;6.920;2022-09-09T16:29:08;0.80;;;0.80;;
62832;SDS011;48891;49.220;6.920;2022-09-09T16:31:33;2.20;;;1.00;;
62832;SDS011;48891;49.220;6.920;2022-09-09T16:33:58;1.50;;;1.10;;
62832;SDS011;48891;49.220;6.920;2022-09-09T16:36:24;0.70;;;0.70;;
62832;SDS011;48891;49.220;6.920;2022-09-09T16:38:52;2.13;;;1.00;;
62832;SDS011;48891;49.220;6.920;2022-09-09T16:41:18;1.17;;;1.00;;
62832;SDS011;48891;49.220;6.920;2022-09-09T16:43:43;1.90;;;1.10;;
62832;SDS011;48891;49.220;6.920;2022-09-09T16:46:12;1.63;;;0.87;;
62832;SDS011;48891;49.220;6.920;2022-09-09T16:48:41;1.88;;;1.33;;
62832;SDS011;48891;49.220;6.920;2022-09-09T16:51:09;1.70;;;0.98;;
62832;SDS011;48891;49.220;6.920;2022-09-09T16:53:38;1.55;;;1.00;;
62832;SDS011;48891;49.220;6.920;2022-09-09T16:56:06;2.23;;;1.10;;
62832;SDS011;48891;49.220;6.920;2022-09-09T16:58:33;2.78;;;1.23;;